sensor_id;sensor_type;location;lat;lon;timestamp;pressure;altitude;pressure_sealevel;temperature;humidity
41967;BME280;27656;53.068;8.818;2023-11-18T00:00:53;102445.03;;;0.59;100.00
41967;BME280;27656;53.068;8.818;2023-11-18T00:03:20;102443.34;;;0.58;100.00
41967;BME280;27656;53.068;8.818;2023-11-18T00:05:46;102446.06;;;0.55;100.00
41967;BME280;27656;53.068;8.818;2023-11-18T00:08:13;102449.63;;;0.52;100.00
41967;BME280;27656;53.068;8.818;2023-11-18T00:10:40;102447.94;;;0.50;100.00
41967;BME280;27656;53.068;8.818;2023-11-18T00:13:06;102446.06;;;0.55;100.00
41967;BME280;27656;53.068;8.818;2023-11-18T00:15:33;102445.16;;;0.56;100.00
41967;BME280;27656;53.068;8.818;2023-11-18T00:18:02;102444.09;;;0.61;100.00
41967;BME280;27656;53.068;8.818;2023-11-18T00:20:28;102453.53;;;0.64;100.00
41967;BME280;27656;53.068;8.818;2023-11-18T00:22:57;102453.75;;;0.58;100.00
41967;BME280;27656;53.068;8.818;2023-11-18T00:25:24;102460.06;;;0.51;100.00
41967;BME280;27656;53.068;8.818;2023-11-18T00:27:50;102459.09;;;0.53;100.00
41967;BME280;27656;53.068;8.818;2023-11-18T00:30:17;102464.19;;;0.56;100.00
41967;BME280;27656;53.068;8.818;2023-11-18T00:32:43;102461.81;;;0.50;100.00
41967;BME280;27656;53.068;8.818;2023-11-18T00:35:10;102455.06;;;0.45;100.00
41967;BME280;27656;53.068;8.818;2023-11-18T00:37:37;102458.69;;;0.40;100.00
41967;BME280;27656;53.068;8.818;2023-11-18T00:40:04;102457.81;;;0.40;100.00
41967;BME280;27656;53.068;8.818;2023-11-18T00:42:30;102461.34;;;0.37;100.00
41967;BME280;27656;53.068;8.818;2023-11-18T00:44:57;102465.75;;;0.35;100.00
41967;BME280;27656;53.068;8.818;2023-11-18T00:47:23;102464.09;;;0.33;100.00
41967;BME280;27656;53.068;8.818;2023-11-18T00:49:50;102479.78;;;0.30;100.00
41967;BME280;27656;53.068;8.818;2023-11-18T00:52:19;102477.19;;;0.30;100.00
41967;BME280;27656;53.068;8.818;2023-11-18T00:54:45;102475.94;;;0.41;100.00
41967;BME280;27656;53.068;8.818;2023-11-18T00:57:12;102481.66;;;0.53;100.00
41967;BME280;27656;53.068;8.818;2023-11-18T00:59:41;102480.47;;;0.61;100.00
41967;BME280;27656;53.068;8.818;2023-11-18T01:02:08;102477.41;;;0.75;100.00
41967;BME280;27656;53.068;8.818;2023-11-18T01:04:34;102476.38;;;0.81;100.00
41967;BME280;27656;53.068;8.818;2023-11-18T01:07:01;102482.19;;;0.88;100.00
41967;BME280;27656;53.068;8.818;2023-11-18T01:09:28;102494.22;;;0.90;100.00
41967;BME280;27656;53.068;8.818;2023-11-18T01:11:54;102490.34;;;1.02;100.00
41967;BME280;27656;53.068;8.818;2023-11-18T01:14:34;102495.19;;;1.13;100.00
41967;BME280;27656;53.068;8.818;2023-11-18T01:17:01;102495.69;;;1.22;100.00
41967;BME280;27656;53.068;8.818;2023-11-18T01:19:27;102494.56;;;1.30;100.00
41967;BME280;27656;53.068;8.818;2023-11-18T01:21:54;102489.19;;;1.34;100.00
41967;BME280;27656;53.068;8.818;2023-11-18T01:24:21;102495.88;;;1.41;100.00
41967;BME280;27656;53.068;8.818;2023-11-18T01:26:48;102492.97;;;1.49;100.00
41967;BME280;27656;53.068;8.818;2023-11-18T01:29:14;102505.78;;;1.55;100.00
41967;BME280;27656;53.068;8.818;2023-11-18T01:31:41;102508.94;;;1.63;100.00
41967;BME280;27656;53.068;8.818;2023-11-18T01:34:18;102510.47;;;1.69;100.00
41967;BME280;27656;53.068;8.818;2023-11-18T01:36:49;102507.63;;;1.75;100.00
41967;BME280;27656;53.068;8.818;2023-11-18T01:39:19;102507.34;;;1.83;100.00
41967;BME280;27656;53.068;8.818;2023-11-18T01:41:45;102513.16;;;1.89;100.00
41967;BME280;27656;53.068;8.818;2023-11-18T01:44:12;102511.25;;;1.95;100.00
41967;BME280;27656;53.068;8.818;2023-11-18T01:46:42;102514.38;;;2.03;100.00
41967;BME280;27656;53.068;8.818;2023-11-18T01:49:13;102520.25;;;2.08;100.00
41967;BME280;27656;53.068;8.818;2023-11-18T01:51:46;102514.03;;;2.12;100.00
41967;BME280;27656;53.068;8.818;2023-11-18T01:54:15;102522.38;;;2.20;100.00
41967;BME280;27656;53.068;8.818;2023-11-18T01:56:44;102520.38;;;2.27;100.00
41967;BME280;27656;53.068;8.818;2023-11-18T01:59:12;102516.66;;;2.32;100.00
41967;BME280;27656;53.068;8.818;2023-11-18T02:01:48;102519.03;;;2.39;100.00
41967;BME280;27656;53.068;8.818;2023-11-18T02:04:16;102519.69;;;2.44;100.00
41967;BME280;27656;53.068;8.818;2023-11-18T02:06:47;102514.94;;;2.53;100.00
41967;BME280;27656;53.068;8.818;2023-11-18T02:09:16;102511.50;;;2.53;100.00
41967;BME280;27656;53.068;8.818;2023-11-18T02:12:18;102514.84;;;2.57;100.00
41967;BME280;27656;53.068;8.818;2023-11-18T02:14:48;102510.28;;;2.62;100.00
41967;BME280;27656;53.068;8.818;2023-11-18T02:17:18;102508.31;;;2.67;100.00
41967;BME280;27656;53.068;8.818;2023-11-18T02:19:46;102497.25;;;2.62;100.00
41967;BME280;27656;53.068;8.818;2023-11-18T02:22:13;102500.03;;;2.57;100.00
41967;BME280;27656;53.068;8.818;2023-11-18T02:24:40;102497.56;;;2.54;100.00
41967;BME280;27656;53.068;8.818;2023-11-18T02:27:08;102490.78;;;2.50;100.00
41967;BME280;27656;53.068;8.818;2023-11-18T02:29:40;102481.25;;;2.49;100.00
41967;BME280;27656;53.068;8.818;2023-11-18T02:32:23;102477.81;;;2.48;100.00
41967;BME280;27656;53.068;8.818;2023-11-18T02:34:58;102477.00;;;2.46;100.00
41967;BME280;27656;53.068;8.818;2023-11-18T02:37:29;102475.69;;;2.36;100.00
41967;BME280;27656;53.068;8.818;2023-11-18T02:40:03;102468.88;;;2.33;100.00
41967;BME280;27656;53.068;8.818;2023-11-18T02:42:42;102468.91;;;2.32;100.00
41967;BME280;27656;53.068;8.818;2023-11-18T02:45:11;102461.28;;;2.27;100.00
41967;BME280;27656;53.068;8.818;2023-11-18T02:47:41;102464.94;;;2.23;100.00
41967;BME280;27656;53.068;8.818;2023-11-18T02:50:08;102463.88;;;2.27;100.00
41967;BME280;27656;53.068;8.818;2023-11-18T02:52:38;102466.44;;;2.29;100.00
41967;BME280;27656;53.068;8.818;2023-11-18T02:55:07;102467.09;;;2.34;100.00
41967;BME280;27656;53.068;8.818;2023-11-18T02:57:38;102468.66;;;2.38;100.00
41967;BME280;27656;53.068;8.818;2023-11-18T03:00:05;102468.72;;;2.37;100.00
41967;BME280;27656;53.068;8.818;2023-11-18T03:02:34;102467.56;;;2.44;100.00
41967;BME280;27656;53.068;8.818;2023-11-18T03:05:01;102469.78;;;2.53;100.00
41967;BME280;27656;53.068;8.818;2023-11-18T03:07:28;102470.31;;;2.61;100.00
41967;BME280;27656;53.068;8.818;2023-11-18T03:09:54;102473.44;;;2.69;100.00
41967;BME280;27656;53.068;8.818;2023-11-18T03:12:23;102469.72;;;2.75;100.00
41967;BME280;27656;53.068;8.818;2023-11-18T03:14:54;102474.03;;;2.76;100.00
41967;BME280;27656;53.068;8.818;2023-11-18T03:17:20;102470.44;;;2.79;100.00
41967;BME280;27656;53.068;8.818;2023-11-18T03:19:47;102477.16;;;2.84;100.00
41967;BME280;27656;53.068;8.818;2023-11-18T03:22:13;102470.91;;;2.88;100.00
41967;BME280;27656;53.068;8.818;2023-11-18T03:24:40;102475.13;;;2.91;100.00
41967;BME280;27656;53.068;8.818;2023-11-18T03:27:06;102475.97;;;2.91;100.00
41967;BME280;27656;53.068;8.818;2023-11-18T03:29:35;102480.09;;;2.97;100.00
41967;BME280;27656;53.068;8.818;2023-11-18T03:32:02;102480.16;;;2.95;100.00
41967;BME280;27656;53.068;8.818;2023-11-18T03:34:29;102482.72;;;2.97;100.00
41967;BME280;27656;53.068;8.818;2023-11-18T03:36:56;102470.31;;;3.02;100.00
41967;BME280;27656;53.068;8.818;2023-11-18T03:39:23;102472.81;;;3.04;100.00
41967;BME280;27656;53.068;8.818;2023-11-18T03:41:49;102476.94;;;3.09;100.00
41967;BME280;27656;53.068;8.818;2023-11-18T03:44:16;102470.78;;;3.10;100.00
41967;BME280;27656;53.068;8.818;2023-11-18T03:46:43;102476.00;;;3.10;100.00
41967;BME280;27656;53.068;8.818;2023-11-18T03:49:09;102471.88;;;3.06;100.00
41967;BME280;27656;53.068;8.818;2023-11-18T03:51:36;102474.34;;;3.09;100.00
41967;BME280;27656;53.068;8.818;2023-11-18T03:54:02;102474.19;;;3.12;100.00
41967;BME280;27656;53.068;8.818;2023-11-18T03:56:29;102473.41;;;3.10;100.00
41967;BME280;27656;53.068;8.818;2023-11-18T03:58:55;102470.34;;;3.01;100.00
41967;BME280;27656;53.068;8.818;2023-11-18T04:01:26;102466.19;;;2.96;100.00
41967;BME280;27656;53.068;8.818;2023-11-18T04:03:55;102458.44;;;2.95;100.00
41967;BME280;27656;53.068;8.818;2023-11-18T04:06:22;102461.25;;;2.90;100.00
41967;BME280;27656;53.068;8.818;2023-11-18T04:08:50;102465.53;;;2.91;100.00
41967;BME280;27656;53.068;8.818;2023-11-18T04:11:17;102460.41;;;2.90;100.00
41967;BME280;27656;53.068;8.818;2023-11-18T04:13:44;102468.88;;;2.95;100.00
41967;BME280;27656;53.068;8.818;2023-11-18T04:16:14;102469.66;;;2.97;100.00
41967;BME280;27656;53.068;8.818;2023-11-18T04:18:45;102464.69;;;2.91;100.00
41967;BME280;27656;53.068;8.818;2023-11-18T04:21:12;102462.34;;;2.85;100.00
41967;BME280;27656;53.068;8.818;2023-11-18T04:23:41;102472.28;;;2.76;100.00
41967;BME280;27656;53.068;8.818;2023-11-18T04:26:08;102472.47;;;2.72;100.00
41967;BME280;27656;53.068;8.818;2023-11-18T04:28:35;102472.59;;;2.69;100.00
41967;BME280;27656;53.068;8.818;2023-11-18T04:31:02;102472.41;;;2.73;100.00
41967;BME280;27656;53.068;8.818;2023-11-18T04:33:29;102468.63;;;2.81;100.00
41967;BME280;27656;53.068;8.818;2023-11-18T04:35:56;102457.13;;;2.85;100.00
41967;BME280;27656;53.068;8.818;2023-11-18T04:38:26;102459.44;;;2.92;100.00
41967;BME280;27656;53.068;8.818;2023-11-18T04:40:53;102455.63;;;3.00;100.00
41967;BME280;27656;53.068;8.818;2023-11-18T04:43:21;102456.22;;;3.06;100.00
41967;BME280;27656;53.068;8.818;2023-11-18T04:46:05;102454.25;;;3.11;100.00
41967;BME280;27656;53.068;8.818;2023-11-18T04:48:31;102447.75;;;3.20;100.00
41967;BME280;27656;53.068;8.818;2023-11-18T04:50:59;102452.13;;;3.19;100.00
41967;BME280;27656;53.068;8.818;2023-11-18T04:53:26;102457.34;;;3.19;100.00
41967;BME280;27656;53.068;8.818;2023-11-18T04:55:53;102449.59;;;3.18;100.00
41967;BME280;27656;53.068;8.818;2023-11-18T04:58:20;102444.38;;;3.18;100.00
41967;BME280;27656;53.068;8.818;2023-11-18T05:00:46;102448.53;;;3.22;100.00
41967;BME280;27656;53.068;8.818;2023-11-18T05:03:16;102435.22;;;3.28;100.00
41967;BME280;27656;53.068;8.818;2023-11-18T05:05:42;102432.66;;;3.27;100.00
41967;BME280;27656;53.068;8.818;2023-11-18T05:08:19;102423.16;;;3.26;100.00
41967;BME280;27656;53.068;8.818;2023-11-18T05:10:47;102419.69;;;3.25;100.00
41967;BME280;27656;53.068;8.818;2023-11-18T05:13:15;102415.09;;;3.30;100.00
41967;BME280;27656;53.068;8.818;2023-11-18T05:15:46;102405.97;;;3.20;100.00
41967;BME280;27656;53.068;8.818;2023-11-18T05:18:13;102405.22;;;3.18;100.00
41967;BME280;27656;53.068;8.818;2023-11-18T05:20:41;102407.69;;;3.21;100.00
41967;BME280;27656;53.068;8.818;2023-11-18T05:23:08;102402.16;;;3.27;100.00
41967;BME280;27656;53.068;8.818;2023-11-18T05:25:42;102405.78;;;3.25;100.00
41967;BME280;27656;53.068;8.818;2023-11-18T05:28:09;102406.66;;;3.25;100.00
41967;BME280;27656;53.068;8.818;2023-11-18T05:30:38;102395.06;;;3.31;100.00
41967;BME280;27656;53.068;8.818;2023-11-18T05:33:05;102398.66;;;3.28;100.00
41967;BME280;27656;53.068;8.818;2023-11-18T05:35:33;102395.97;;;3.30;100.00
41967;BME280;27656;53.068;8.818;2023-11-18T05:37:59;102396.91;;;3.29;100.00
41967;BME280;27656;53.068;8.818;2023-11-18T05:40:26;102401.06;;;3.33;100.00
41967;BME280;27656;53.068;8.818;2023-11-18T05:42:55;102399.91;;;3.38;100.00
41967;BME280;27656;53.068;8.818;2023-11-18T05:45:21;102399.91;;;3.38;100.00
41967;BME280;27656;53.068;8.818;2023-11-18T05:47:55;102401.41;;;3.44;100.00
41967;BME280;27656;53.068;8.818;2023-11-18T05:50:25;102405.66;;;3.47;100.00
41967;BME280;27656;53.068;8.818;2023-11-18T05:52:53;102405.88;;;3.42;100.00
41967;BME280;27656;53.068;8.818;2023-11-18T05:55:20;102405.78;;;3.44;100.00
41967;BME280;27656;53.068;8.818;2023-11-18T05:57:46;102410.16;;;3.43;100.00
41967;BME280;27656;53.068;8.818;2023-11-18T06:00:14;102404.72;;;3.48;100.00
41967;BME280;27656;53.068;8.818;2023-11-18T06:02:50;102401.94;;;3.51;100.00
41967;BME280;27656;53.068;8.818;2023-11-18T06:05:18;102409.88;;;3.49;100.00
41967;BME280;27656;53.068;8.818;2023-11-18T06:07:44;102401.13;;;3.50;100.00
41967;BME280;27656;53.068;8.818;2023-11-18T06:10:11;102401.13;;;3.50;100.00
41967;BME280;27656;53.068;8.818;2023-11-18T06:12:38;102404.66;;;3.49;100.00
41967;BME280;27656;53.068;8.818;2023-11-18T06:15:07;102407.31;;;3.48;100.00
41967;BME280;27656;53.068;8.818;2023-11-18T06:17:35;102407.53;;;3.43;100.00
41967;BME280;27656;53.068;8.818;2023-11-18T06:20:03;102409.38;;;3.41;100.00
41967;BME280;27656;53.068;8.818;2023-11-18T06:22:32;102412.59;;;3.46;100.00
41967;BME280;27656;53.068;8.818;2023-11-18T06:24:59;102402.25;;;3.45;100.00
41967;BME280;27656;53.068;8.818;2023-11-18T06:27:25;102410.94;;;3.45;100.00
41967;BME280;27656;53.068;8.818;2023-11-18T06:29:52;102411.78;;;3.46;100.00
41967;BME280;27656;53.068;8.818;2023-11-18T06:32:21;102416.72;;;3.52;100.00
41967;BME280;27656;53.068;8.818;2023-11-18T06:34:48;102410.56;;;3.53;100.00
41967;BME280;27656;53.068;8.818;2023-11-18T06:37:15;102412.19;;;3.55;100.00
41967;BME280;27656;53.068;8.818;2023-11-18T06:39:43;102422.50;;;3.58;100.00
41967;BME280;27656;53.068;8.818;2023-11-18T06:42:11;102419.91;;;3.58;100.00
41967;BME280;27656;53.068;8.818;2023-11-18T06:44:38;102419.03;;;3.58;100.00
41967;BME280;27656;53.068;8.818;2023-11-18T06:47:05;102428.41;;;3.62;100.00
41967;BME280;27656;53.068;8.818;2023-11-18T06:49:32;102425.75;;;3.64;100.00
41967;BME280;27656;53.068;8.818;2023-11-18T06:52:03;102422.34;;;3.61;100.00
41967;BME280;27656;53.068;8.818;2023-11-18T06:54:30;102425.13;;;3.58;100.00
41967;BME280;27656;53.068;8.818;2023-11-18T06:56:59;102423.34;;;3.59;100.00
41967;BME280;27656;53.068;8.818;2023-11-18T06:59:25;102422.63;;;3.55;100.00
41967;BME280;27656;53.068;8.818;2023-11-18T07:01:52;102429.19;;;3.64;100.00
41967;BME280;27656;53.068;8.818;2023-11-18T07:04:18;102431.59;;;3.69;100.00
41967;BME280;27656;53.068;8.818;2023-11-18T07:06:45;102437.59;;;3.71;100.00
41967;BME280;27656;53.068;8.818;2023-11-18T07:09:11;102433.06;;;3.74;100.00
41967;BME280;27656;53.068;8.818;2023-11-18T07:11:47;102424.16;;;3.78;100.00
41967;BME280;27656;53.068;8.818;2023-11-18T07:14:15;102415.31;;;3.81;100.00
41967;BME280;27656;53.068;8.818;2023-11-18T07:16:42;102415.94;;;3.86;100.00
41967;BME280;27656;53.068;8.818;2023-11-18T07:19:09;102420.13;;;3.90;100.00
41967;BME280;27656;53.068;8.818;2023-11-18T07:21:41;102423.06;;;4.01;100.00
41967;BME280;27656;53.068;8.818;2023-11-18T07:24:07;102430.81;;;4.03;100.00
41967;BME280;27656;53.068;8.818;2023-11-18T07:26:34;102433.56;;;4.00;100.00
41967;BME280;27656;53.068;8.818;2023-11-18T07:29:00;102432.41;;;4.06;100.00
41967;BME280;27656;53.068;8.818;2023-11-18T07:31:27;102438.41;;;4.08;100.00
41967;BME280;27656;53.068;8.818;2023-11-18T07:33:55;102436.59;;;4.10;100.00
41967;BME280;27656;53.068;8.818;2023-11-18T07:36:22;102429.53;;;4.12;100.00
41967;BME280;27656;53.068;8.818;2023-11-18T07:38:49;102432.75;;;4.17;100.00
41967;BME280;27656;53.068;8.818;2023-11-18T07:41:16;102428.84;;;4.25;100.00
41967;BME280;27656;53.068;8.818;2023-11-18T07:43:57;102436.47;;;4.30;100.00
41967;BME280;27656;53.068;8.818;2023-11-18T07:46:23;102426.69;;;4.34;100.00
41967;BME280;27656;53.068;8.818;2023-11-18T07:48:51;102416.22;;;4.34;100.00
41967;BME280;27656;53.068;8.818;2023-11-18T07:51:21;102421.59;;;4.31;100.00
41967;BME280;27656;53.068;8.818;2023-11-18T07:53:49;102416.16;;;4.35;100.00
41967;BME280;27656;53.068;8.818;2023-11-18T07:56:16;102412.75;;;4.33;100.00
41967;BME280;27656;53.068;8.818;2023-11-18T07:58:43;102408.84;;;4.42;100.00
41967;BME280;27656;53.068;8.818;2023-11-18T08:01:14;102406.19;;;4.59;100.00
41967;BME280;27656;53.068;8.818;2023-11-18T08:03:42;102404.66;;;4.73;100.00
41967;BME280;27656;53.068;8.818;2023-11-18T08:06:10;102399.38;;;4.90;100.00
41967;BME280;27656;53.068;8.818;2023-11-18T08:08:38;102402.50;;;4.97;100.00
41967;BME280;27656;53.068;8.818;2023-11-18T08:11:05;102404.53;;;5.07;100.00
41967;BME280;27656;53.068;8.818;2023-11-18T08:13:32;102398.28;;;5.10;100.00
41967;BME280;27656;53.068;8.818;2023-11-18T08:15:58;102392.31;;;5.08;100.00
41967;BME280;27656;53.068;8.818;2023-11-18T08:18:25;102394.00;;;5.09;100.00
41967;BME280;27656;53.068;8.818;2023-11-18T08:20:53;102384.28;;;5.11;100.00
41967;BME280;27656;53.068;8.818;2023-11-18T08:23:20;102400.44;;;5.35;100.00
41967;BME280;27656;53.068;8.818;2023-11-18T08:25:46;102400.44;;;5.51;100.00
41967;BME280;27656;53.068;8.818;2023-11-18T08:28:13;102389.03;;;5.52;100.00
41967;BME280;27656;53.068;8.818;2023-11-18T08:30:40;102389.72;;;5.40;100.00
41967;BME280;27656;53.068;8.818;2023-11-18T08:33:06;102392.47;;;5.52;100.00
41967;BME280;27656;53.068;8.818;2023-11-18T08:35:36;102390.97;;;5.64;100.00
41967;BME280;27656;53.068;8.818;2023-11-18T08:38:03;102388.44;;;5.93;100.00
41967;BME280;27656;53.068;8.818;2023-11-18T08:40:31;102391.59;;;6.00;100.00
41967;BME280;27656;53.068;8.818;2023-11-18T08:42:57;102392.84;;;5.92;100.00
41967;BME280;27656;53.068;8.818;2023-11-18T08:45:26;102389.59;;;5.73;100.00
41967;BME280;27656;53.068;8.818;2023-11-18T08:47:56;102388.25;;;5.66;100.00
41967;BME280;27656;53.068;8.818;2023-11-18T08:50:24;102392.59;;;5.51;100.00
41967;BME280;27656;53.068;8.818;2023-11-18T08:52:52;102390.38;;;5.43;100.00
41967;BME280;27656;53.068;8.818;2023-11-18T08:55:27;102389.19;;;5.33;100.00
41967;BME280;27656;53.068;8.818;2023-11-18T08:58:14;102380.34;;;5.20;100.00
41967;BME280;27656;53.068;8.818;2023-11-18T09:00:50;102378.47;;;5.06;100.00
41967;BME280;27656;53.068;8.818;2023-11-18T09:03:24;102369.78;;;5.05;100.00
41967;BME280;27656;53.068;8.818;2023-11-18T09:06:16;102367.75;;;5.10;100.00
41967;BME280;27656;53.068;8.818;2023-11-18T09:08:52;102357.13;;;5.29;100.00
41967;BME280;27656;53.068;8.818;2023-11-18T09:11:24;102356.56;;;5.55;100.00
41967;BME280;27656;53.068;8.818;2023-11-18T09:13:53;102353.69;;;5.75;100.00
41967;BME280;27656;53.068;8.818;2023-11-18T09:16:21;102355.59;;;6.03;100.00
41967;BME280;27656;53.068;8.818;2023-11-18T09:18:49;102362.44;;;5.90;100.00
41967;BME280;27656;53.068;8.818;2023-11-18T09:21:15;102357.22;;;5.74;100.00
41967;BME280;27656;53.068;8.818;2023-11-18T09:23:45;102368.75;;;5.40;100.00
41967;BME280;27656;53.068;8.818;2023-11-18T09:26:14;102372.91;;;5.28;100.00
41967;BME280;27656;53.068;8.818;2023-11-18T09:28:41;102370.69;;;5.36;100.00
41967;BME280;27656;53.068;8.818;2023-11-18T09:31:07;102368.06;;;5.36;100.00
41967;BME280;27656;53.068;8.818;2023-11-18T09:33:40;102364.09;;;5.45;100.00
41967;BME280;27656;53.068;8.818;2023-11-18T09:36:11;102375.75;;;5.55;100.00
41967;BME280;27656;53.068;8.818;2023-11-18T09:38:40;102369.53;;;5.88;100.00
41967;BME280;27656;53.068;8.818;2023-11-18T09:41:12;102365.81;;;6.08;100.00
41967;BME280;27656;53.068;8.818;2023-11-18T09:43:41;102353.06;;;6.16;100.00
41967;BME280;27656;53.068;8.818;2023-11-18T09:46:17;102350.00;;;6.24;100.00
41967;BME280;27656;53.068;8.818;2023-11-18T09:48:48;102348.09;;;6.11;100.00
41967;BME280;27656;53.068;8.818;2023-11-18T09:51:23;102340.22;;;6.11;100.00
41967;BME280;27656;53.068;8.818;2023-11-18T09:53:51;102328.16;;;6.09;100.00
41967;BME280;27656;53.068;8.818;2023-11-18T09:56:23;102334.50;;;6.05;100.00
41967;BME280;27656;53.068;8.818;2023-11-18T09:59:11;102323.66;;;6.11;100.00
41967;BME280;27656;53.068;8.818;2023-11-18T10:01:43;102324.53;;;6.26;100.00
41967;BME280;27656;53.068;8.818;2023-11-18T10:04:13;102317.31;;;6.29;100.00
41967;BME280;27656;53.068;8.818;2023-11-18T10:06:44;102309.94;;;6.50;100.00
41967;BME280;27656;53.068;8.818;2023-11-18T10:09:11;102293.72;;;6.58;100.00
41967;BME280;27656;53.068;8.818;2023-11-18T10:11:48;102285.75;;;6.45;100.00
41967;BME280;27656;53.068;8.818;2023-11-18T10:14:15;102285.94;;;6.28;100.00
41967;BME280;27656;53.068;8.818;2023-11-18T10:16:45;102290.69;;;6.35;100.00
41967;BME280;27656;53.068;8.818;2023-11-18T10:19:14;102275.53;;;6.41;100.00
41967;BME280;27656;53.068;8.818;2023-11-18T10:21:44;102277.31;;;6.54;100.00
41967;BME280;27656;53.068;8.818;2023-11-18T10:24:15;102271.41;;;6.51;100.00
41967;BME280;27656;53.068;8.818;2023-11-18T10:26:53;102264.47;;;6.50;100.00
41967;BME280;27656;53.068;8.818;2023-11-18T10:29:24;102261.19;;;6.61;100.00
41967;BME280;27656;53.068;8.818;2023-11-18T10:31:50;102262.28;;;6.71;100.00
41967;BME280;27656;53.068;8.818;2023-11-18T10:34:28;102279.28;;;6.65;100.00
41967;BME280;27656;53.068;8.818;2023-11-18T10:37:04;102278.59;;;6.76;100.00
41967;BME280;27656;53.068;8.818;2023-11-18T10:39:33;102277.16;;;6.99;100.00
41967;BME280;27656;53.068;8.818;2023-11-18T10:42:02;102280.25;;;6.91;100.00
41967;BME280;27656;53.068;8.818;2023-11-18T10:44:29;102279.59;;;6.88;100.00
41967;BME280;27656;53.068;8.818;2023-11-18T10:46:57;102271.72;;;6.88;100.00
41967;BME280;27656;53.068;8.818;2023-11-18T10:49:29;102259.84;;;6.82;100.00
41967;BME280;27656;53.068;8.818;2023-11-18T10:51:56;102253.69;;;6.54;100.00
41967;BME280;27656;53.068;8.818;2023-11-18T10:54:28;102249.38;;;6.53;100.00
41967;BME280;27656;53.068;8.818;2023-11-18T10:56:55;102247.13;;;6.62;100.00
41967;BME280;27656;53.068;8.818;2023-11-18T10:59:23;102242.00;;;6.60;100.00
41967;BME280;27656;53.068;8.818;2023-11-18T11:01:49;102238.81;;;6.55;100.00
41967;BME280;27656;53.068;8.818;2023-11-18T11:04:17;102230.28;;;6.51;100.00
41967;BME280;27656;53.068;8.818;2023-11-18T11:06:48;102236.19;;;6.55;100.00
41967;BME280;27656;53.068;8.818;2023-11-18T11:09:24;102228.28;;;6.69;100.00
41967;BME280;27656;53.068;8.818;2023-11-18T11:11:59;102217.34;;;6.63;100.00
41967;BME280;27656;53.068;8.818;2023-11-18T11:14:37;102219.00;;;6.64;100.00
41967;BME280;27656;53.068;8.818;2023-11-18T11:17:17;102211.09;;;6.78;100.00
41967;BME280;27656;53.068;8.818;2023-11-18T11:19:57;102205.47;;;6.84;100.00
41967;BME280;27656;53.068;8.818;2023-11-18T11:22:48;102202.25;;;6.93;100.00
41967;BME280;27656;53.068;8.818;2023-11-18T11:25:26;102192.72;;;6.78;100.00
41967;BME280;27656;53.068;8.818;2023-11-18T11:28:03;102191.88;;;6.77;100.00
41967;BME280;27656;53.068;8.818;2023-11-18T11:30:46;102182.59;;;6.86;100.00
41967;BME280;27656;53.068;8.818;2023-11-18T11:33:26;102185.75;;;6.91;100.00
41967;BME280;27656;53.068;8.818;2023-11-18T11:35:56;102185.09;;;6.88;100.00
41967;BME280;27656;53.068;8.818;2023-11-18T11:38:24;102172.38;;;6.82;100.00
41967;BME280;27656;53.068;8.818;2023-11-18T11:40:57;102173.22;;;6.82;100.00
41967;BME280;27656;53.068;8.818;2023-11-18T11:43:27;102173.41;;;6.79;100.00
41967;BME280;27656;53.068;8.818;2023-11-18T11:45:54;102154.06;;;6.67;100.00
41967;BME280;27656;53.068;8.818;2023-11-18T11:48:24;102156.44;;;6.57;100.00
41967;BME280;27656;53.068;8.818;2023-11-18T11:51:05;102145.06;;;6.57;100.00
41967;BME280;27656;53.068;8.818;2023-11-18T11:53:52;102143.66;;;6.66;100.00
41967;BME280;27656;53.068;8.818;2023-11-18T11:56:37;102145.59;;;6.76;100.00
41967;BME280;27656;53.068;8.818;2023-11-18T11:59:04;102142.09;;;6.76;100.00
41967;BME280;27656;53.068;8.818;2023-11-18T12:01:37;102126.91;;;6.81;100.00
41967;BME280;27656;53.068;8.818;2023-11-18T12:04:05;102130.69;;;6.77;100.00
41967;BME280;27656;53.068;8.818;2023-11-18T12:06:41;102125.44;;;6.77;100.00
41967;BME280;27656;53.068;8.818;2023-11-18T12:09:09;102118.09;;;6.95;100.00
41967;BME280;27656;53.068;8.818;2023-11-18T12:11:37;102113.97;;;7.18;100.00
41967;BME280;27656;53.068;8.818;2023-11-18T12:14:07;102102.00;;;7.27;100.00
41967;BME280;27656;53.068;8.818;2023-11-18T12:17:00;102107.69;;;7.33;100.00
41967;BME280;27656;53.068;8.818;2023-11-18T12:19:31;102115.44;;;7.35;100.00
41967;BME280;27656;53.068;8.818;2023-11-18T12:33:02;102133.69;;;6.98;100.00
41967;BME280;27656;53.068;8.818;2023-11-18T12:39:16;102130.25;;;6.83;100.00
41967;BME280;27656;53.068;8.818;2023-11-18T12:42:01;102128.13;;;6.75;100.00
41967;BME280;27656;53.068;8.818;2023-11-18T12:44:37;102127.59;;;6.70;100.00
41967;BME280;27656;53.068;8.818;2023-11-18T12:47:06;102130.91;;;6.59;100.00
41967;BME280;27656;53.068;8.818;2023-11-18T12:49:41;102122.84;;;6.63;100.00
41967;BME280;27656;53.068;8.818;2023-11-18T12:52:10;102116.66;;;6.64;100.00
41967;BME280;27656;53.068;8.818;2023-11-18T12:54:37;102113.53;;;6.71;100.00
41967;BME280;27656;53.068;8.818;2023-11-18T12:57:10;102110.72;;;6.74;100.00
41967;BME280;27656;53.068;8.818;2023-11-18T12:59:41;102116.13;;;6.58;100.00
41967;BME280;27656;53.068;8.818;2023-11-18T13:02:09;102091.16;;;6.66;100.00
41967;BME280;27656;53.068;8.818;2023-11-18T13:04:40;102085.69;;;6.69;100.00
41967;BME280;27656;53.068;8.818;2023-11-18T13:07:07;102080.34;;;6.70;100.00
41967;BME280;27656;53.068;8.818;2023-11-18T13:09:35;102094.38;;;6.56;100.00
41967;BME280;27656;53.068;8.818;2023-11-18T13:12:03;102104.25;;;6.53;100.00
41967;BME280;27656;53.068;8.818;2023-11-18T13:14:36;102092.84;;;6.40;100.00
41967;BME280;27656;53.068;8.818;2023-11-18T13:17:04;102071.94;;;6.38;100.00